Coy City, Texas
Current Conditions -  °F | °C
As of 11:55 AM on Saturday 25 Oct 2014 (Local Time) from KPEZ Reporting Station
Clear Clear  
Wind Chill: 81°   Ceiling: Unl
Heat Index: 81°   Visibility: 10mi
Dew Point: 55°   Wind: 5mph
Humidity: 40%   Direction: 190°S
Pressure: 30.19"   Gusts: NA
Location:  28.8496°N, 97.9656°W
Report Text: KPEZ 251655Z AUTO 19004KT 10SM CLR 27/13 A3019 RMK AO2 T02740128
Loading
Personal Weather Stations






























Interactive Weather Map
Tropical Storm Tracking
New forecast layout! Learn more

10-Day Weather Forecast

Advertisements
Track Severe Weather on mobile